JLY1207 SBGR-SAAR
Flight info
| Callsign | JLY1207 |
|---|---|
| Flight time | 2h 36m |
| Altitude | 32000 |
| Route | SOVSI UZ85 RAXIT DCT UMDOR DCT ESLOT DCT URURI UM534 ANRAL DCT TINTA |
| Aircraft | B737/M-SDFGIKRWY/LB1 |
Departure
| Time | 2026-05-06 01:06 |
|---|---|
| Airport | São Paulo/Guarulhos–Governor André Franco Montoro International Airport (SBGR) |
Arrival
| Time | 2026-05-06 03:42 |
|---|---|
| Airport | Rosario Islas Malvinas International Airport (SAAR) |
| Time | Latitude | Longitude | Altitude | Speed | Heading |
|---|---|---|---|---|---|
| 2026-05-06 00:41 | -23.42889 | -46.48224 | 2446 ft | 0 kts | 264° |
| 2026-05-06 00:57 | -23.42888 | -46.48218 | 2446 ft | 2 kts | 264° |
| 2026-05-06 00:57 | -23.42887 | -46.48203 | 2447 ft | 2 kts | 264° |
| 2026-05-06 00:57 | -23.42886 | -46.48192 | 2447 ft | 2 kts | 265° |
| 2026-05-06 00:57 | -23.42880 | -46.48177 | 2446 ft | 2 kts | 221° |
| 2026-05-06 00:58 | -23.42866 | -46.48170 | 2447 ft | 2 kts | 187° |
| 2026-05-06 00:58 | -23.42859 | -46.48170 | 2446 ft | 1 kts | 169° |
| 2026-05-06 00:58 | -23.42855 | -46.48171 | 2446 ft | 0 kts | 174° |
| 2026-05-06 01:02 | -23.42855 | -46.48170 | 2446 ft | 0 kts | 174° |
| 2026-05-06 01:02 | -23.42860 | -46.48170 | 2446 ft | 2 kts | 174° |
| 2026-05-06 01:03 | -23.42894 | -46.48167 | 2446 ft | 7 kts | 174° |
| 2026-05-06 01:03 | -23.42951 | -46.48141 | 2446 ft | 11 kts | 169° |
| 2026-05-06 01:03 | -23.43039 | -46.48130 | 2446 ft | 13 kts | 174° |
| 2026-05-06 01:03 | -23.43116 | -46.48148 | 2446 ft | 11 kts | 236° |
| 2026-05-06 01:04 | -23.43141 | -46.48233 | 2446 ft | 11 kts | 253° |
| 2026-05-06 01:04 | -23.43164 | -46.48319 | 2446 ft | 11 kts | 253° |
| 2026-05-06 01:04 | -23.43211 | -46.48386 | 2446 ft | 11 kts | 185° |
| 2026-05-06 01:04 | -23.43285 | -46.48367 | 2448 ft | 10 kts | 163° |
| 2026-05-06 01:05 | -23.43346 | -46.48348 | 2449 ft | 8 kts | 163° |
| 2026-05-06 01:05 | -23.43406 | -46.48327 | 2451 ft | 9 kts | 146° |
| 2026-05-06 01:05 | -23.43402 | -46.48240 | 2452 ft | 21 kts | 74° |
| 2026-05-06 01:05 | -23.43295 | -46.47846 | 2451 ft | 85 kts | 73° |
| 2026-05-06 01:06 | -23.43071 | -46.47011 | 2451 ft | 140 kts | 74° |
| 2026-05-06 01:06 | -23.42761 | -46.45857 | 2641 ft | 166 kts | 74° |
| 2026-05-06 01:06 | -23.42430 | -46.44672 | 3192 ft | 169 kts | 73° |
| 2026-05-06 01:06 | -23.42073 | -46.43442 | 3685 ft | 178 kts | 73° |
| 2026-05-06 01:07 | -23.41702 | -46.42197 | 4364 ft | 174 kts | 72° |
| 2026-05-06 01:07 | -23.41301 | -46.40898 | 4797 ft | 187 kts | 72° |
| 2026-05-06 01:07 | -23.40891 | -46.39510 | 5221 ft | 200 kts | 73° |
| 2026-05-06 01:07 | -23.40464 | -46.38034 | 5658 ft | 213 kts | 73° |
| 2026-05-06 01:08 | -23.40095 | -46.36420 | 6100 ft | 227 kts | 84° |
| 2026-05-06 01:08 | -23.40276 | -46.34681 | 6487 ft | 243 kts | 107° |
| 2026-05-06 01:08 | -23.40907 | -46.32911 | 6927 ft | 259 kts | 112° |
| 2026-05-06 01:08 | -23.41599 | -46.31063 | 7424 ft | 271 kts | 111° |
| 2026-05-06 01:09 | -23.42331 | -46.29149 | 8096 ft | 277 kts | 116° |
| 2026-05-06 01:09 | -23.43414 | -46.27388 | 8805 ft | 282 kts | 133° |
| 2026-05-06 01:09 | -23.45010 | -46.26167 | 9578 ft | 286 kts | 154° |
| 2026-05-06 01:09 | -23.46909 | -46.25499 | 10311 ft | 290 kts | 167° |
| 2026-05-06 01:10 | -23.48949 | -46.25352 | 10883 ft | 302 kts | 183° |
| 2026-05-06 01:10 | -23.51082 | -46.25738 | 11325 ft | 318 kts | 195° |
| 2026-05-06 01:10 | -23.53132 | -46.26778 | 11736 ft | 335 kts | 214° |
| 2026-05-06 01:10 | -23.54703 | -46.28701 | 12103 ft | 353 kts | 240° |
| 2026-05-06 01:11 | -23.55375 | -46.31289 | 12449 ft | 370 kts | 265° |
| 2026-05-06 01:11 | -23.55231 | -46.34132 | 12870 ft | 382 kts | 273° |
| 2026-05-06 01:11 | -23.55368 | -46.37026 | 13448 ft | 386 kts | 257° |
| 2026-05-06 01:11 | -23.56265 | -46.39782 | 14132 ft | 388 kts | 244° |
| 2026-05-06 01:12 | -23.57492 | -46.42405 | 14827 ft | 390 kts | 240° |
| 2026-05-06 01:12 | -23.58847 | -46.44960 | 15521 ft | 393 kts | 238° |
| 2026-05-06 01:12 | -23.60253 | -46.47526 | 16232 ft | 395 kts | 238° |
| 2026-05-06 01:12 | -23.61645 | -46.50106 | 16893 ft | 399 kts | 240° |
| 2026-05-06 01:13 | -23.62992 | -46.52745 | 17542 ft | 401 kts | 240° |
| 2026-05-06 01:13 | -23.64351 | -46.55401 | 18217 ft | 404 kts | 240° |
| 2026-05-06 01:13 | -23.65630 | -46.57881 | 18793 ft | 407 kts | 240° |
| 2026-05-06 01:13 | -23.67027 | -46.60593 | 19445 ft | 410 kts | 240° |
| 2026-05-06 01:14 | -23.69795 | -46.66003 | 20688 ft | 416 kts | 240° |
| 2026-05-06 01:14 | -23.71206 | -46.68778 | 21308 ft | 419 kts | 240° |
| 2026-05-06 01:14 | -23.72613 | -46.71554 | 21946 ft | 421 kts | 240° |
| 2026-05-06 01:15 | -23.74019 | -46.74333 | 22606 ft | 422 kts | 240° |
| 2026-05-06 01:15 | -23.75448 | -46.77158 | 23174 ft | 426 kts | 240° |
| 2026-05-06 01:15 | -23.76876 | -46.79985 | 23762 ft | 429 kts | 240° |
| 2026-05-06 01:15 | -23.78309 | -46.82827 | 24399 ft | 430 kts | 240° |
| 2026-05-06 01:16 | -23.79755 | -46.85693 | 25032 ft | 431 kts | 240° |
| 2026-05-06 01:16 | -23.81214 | -46.88587 | 25559 ft | 434 kts | 240° |
| 2026-05-06 01:16 | -23.82653 | -46.91443 | 26132 ft | 436 kts | 240° |
| 2026-05-06 01:16 | -23.84106 | -46.94327 | 26739 ft | 436 kts | 240° |
| 2026-05-06 01:17 | -23.85585 | -46.97266 | 27288 ft | 438 kts | 239° |
| 2026-05-06 01:17 | -23.87033 | -47.00145 | 27768 ft | 441 kts | 239° |
| 2026-05-06 01:17 | -23.88516 | -47.03095 | 28312 ft | 442 kts | 239° |
| 2026-05-06 01:17 | -23.89990 | -47.06028 | 28802 ft | 444 kts | 239° |
| 2026-05-06 01:18 | -23.91479 | -47.08996 | 29496 ft | 441 kts | 239° |
| 2026-05-06 01:18 | -23.92918 | -47.11869 | 30391 ft | 433 kts | 239° |
| 2026-05-06 01:18 | -23.94345 | -47.14718 | 31155 ft | 428 kts | 239° |
| 2026-05-06 01:18 | -23.95775 | -47.17575 | 31799 ft | 425 kts | 239° |
| 2026-05-06 01:19 | -23.97177 | -47.20376 | 32229 ft | 424 kts | 239° |
| 2026-05-06 01:19 | -23.98611 | -47.23240 | 32245 ft | 429 kts | 239° |
| 2026-05-06 01:19 | -24.01436 | -47.28890 | 32230 ft | 425 kts | 239° |
| 2026-05-06 01:20 | -24.04265 | -47.34553 | 32228 ft | 427 kts | 239° |
| 2026-05-06 01:20 | -24.07109 | -47.40255 | 32221 ft | 425 kts | 240° |
| 2026-05-06 01:21 | -24.10205 | -47.45757 | 32216 ft | 424 kts | 231° |
| 2026-05-06 01:21 | -24.14545 | -47.50075 | 32203 ft | 424 kts | 216° |
| 2026-05-06 01:22 | -24.19485 | -47.53611 | 32190 ft | 423 kts | 213° |
| 2026-05-06 01:22 | -24.24536 | -47.57028 | 32173 ft | 424 kts | 213° |
| 2026-05-06 01:23 | -24.29527 | -47.60429 | 32163 ft | 424 kts | 213° |
| 2026-05-06 01:23 | -24.34527 | -47.63876 | 32157 ft | 424 kts | 213° |
| 2026-05-06 01:24 | -24.39502 | -47.67358 | 32154 ft | 425 kts | 215° |
| 2026-05-06 01:24 | -24.44168 | -47.71367 | 32154 ft | 424 kts | 222° |
| 2026-05-06 01:25 | -24.48447 | -47.75752 | 32153 ft | 423 kts | 224° |
| 2026-05-06 01:25 | -24.52666 | -47.80247 | 32152 ft | 423 kts | 225° |
| 2026-05-06 01:26 | -24.56905 | -47.84775 | 32154 ft | 423 kts | 224° |
| 2026-05-06 01:26 | -24.61115 | -47.89263 | 32155 ft | 423 kts | 224° |
| 2026-05-06 01:27 | -24.65330 | -47.93746 | 32156 ft | 422 kts | 225° |
| 2026-05-06 01:27 | -24.69568 | -47.98252 | 32160 ft | 422 kts | 224° |
| 2026-05-06 01:28 | -24.73786 | -48.02740 | 32161 ft | 423 kts | 224° |
| 2026-05-06 01:28 | -24.77997 | -48.07222 | 32164 ft | 422 kts | 225° |
| 2026-05-06 01:29 | -24.82200 | -48.11702 | 32171 ft | 421 kts | 225° |
| 2026-05-06 01:29 | -24.86420 | -48.16217 | 32184 ft | 423 kts | 225° |
| 2026-05-06 01:30 | -24.90631 | -48.20717 | 32191 ft | 421 kts | 224° |
| 2026-05-06 01:30 | -24.94820 | -48.25187 | 32215 ft | 421 kts | 225° |
| 2026-05-06 01:31 | -24.99016 | -48.29670 | 32241 ft | 421 kts | 225° |
| 2026-05-06 01:31 | -25.03223 | -48.34175 | 32248 ft | 421 kts | 225° |
| 2026-05-06 01:32 | -25.07441 | -48.38699 | 32244 ft | 423 kts | 225° |
| 2026-05-06 01:32 | -25.11620 | -48.43185 | 32236 ft | 422 kts | 225° |
| 2026-05-06 01:33 | -25.15922 | -48.47630 | 32219 ft | 421 kts | 223° |
| 2026-05-06 01:33 | -25.20298 | -48.51929 | 32192 ft | 423 kts | 223° |
| 2026-05-06 01:34 | -25.24691 | -48.56228 | 32180 ft | 422 kts | 223° |
| 2026-05-06 01:34 | -25.29036 | -48.60504 | 32172 ft | 420 kts | 223° |
| 2026-05-06 01:35 | -25.33402 | -48.64822 | 32172 ft | 422 kts | 223° |
| 2026-05-06 01:35 | -25.37780 | -48.69166 | 32179 ft | 422 kts | 224° |
| 2026-05-06 01:36 | -25.42124 | -48.73487 | 32170 ft | 422 kts | 223° |
| 2026-05-06 01:36 | -25.46487 | -48.77832 | 32186 ft | 422 kts | 224° |
| 2026-05-06 01:37 | -25.50843 | -48.82176 | 32215 ft | 421 kts | 223° |
| 2026-05-06 01:37 | -25.55184 | -48.86507 | 32235 ft | 421 kts | 224° |
| 2026-05-06 01:38 | -25.59532 | -48.90850 | 32256 ft | 422 kts | 224° |
| 2026-05-06 01:38 | -25.63902 | -48.95219 | 32264 ft | 421 kts | 224° |
| 2026-05-06 01:39 | -25.68247 | -48.99569 | 32277 ft | 420 kts | 224° |
| 2026-05-06 01:39 | -25.72571 | -49.03900 | 32271 ft | 420 kts | 224° |
| 2026-05-06 01:40 | -25.76910 | -49.08253 | 32270 ft | 421 kts | 224° |
| 2026-05-06 01:40 | -25.81242 | -49.12603 | 32275 ft | 420 kts | 224° |
| 2026-05-06 01:41 | -25.85562 | -49.16943 | 32279 ft | 421 kts | 224° |
| 2026-05-06 01:41 | -25.89902 | -49.21310 | 32279 ft | 421 kts | 224° |
| 2026-05-06 01:42 | -25.94217 | -49.25655 | 32280 ft | 419 kts | 224° |
| 2026-05-06 01:42 | -25.98546 | -49.30019 | 32280 ft | 420 kts | 224° |
| 2026-05-06 01:43 | -26.02870 | -49.34383 | 32274 ft | 419 kts | 224° |
| 2026-05-06 01:43 | -26.07177 | -49.38732 | 32278 ft | 419 kts | 224° |
| 2026-05-06 01:44 | -26.11519 | -49.43123 | 32278 ft | 420 kts | 224° |
| 2026-05-06 01:44 | -26.15826 | -49.47484 | 32278 ft | 422 kts | 224° |
| 2026-05-06 01:45 | -26.20144 | -49.51858 | 32271 ft | 419 kts | 224° |
| 2026-05-06 01:45 | -26.24451 | -49.56232 | 32264 ft | 420 kts | 224° |
| 2026-05-06 01:46 | -26.28751 | -49.60640 | 32265 ft | 420 kts | 224° |
| 2026-05-06 01:46 | -26.33037 | -49.65053 | 32266 ft | 419 kts | 225° |
| 2026-05-06 01:47 | -26.37329 | -49.69476 | 32268 ft | 418 kts | 225° |
| 2026-05-06 01:47 | -26.41577 | -49.73857 | 32266 ft | 418 kts | 225° |
| 2026-05-06 01:48 | -26.45866 | -49.78283 | 32266 ft | 417 kts | 225° |
| 2026-05-06 01:48 | -26.50129 | -49.82685 | 32259 ft | 419 kts | 225° |
| 2026-05-06 01:49 | -26.54394 | -49.87094 | 32249 ft | 420 kts | 225° |
| 2026-05-06 01:50 | -26.63121 | -49.96130 | 32234 ft | 420 kts | 225° |
| 2026-05-06 01:50 | -26.67376 | -50.00539 | 32232 ft | 416 kts | 225° |
| 2026-05-06 01:51 | -26.71618 | -50.04942 | 32238 ft | 417 kts | 225° |
| 2026-05-06 01:51 | -26.75873 | -50.09364 | 32246 ft | 418 kts | 225° |
| 2026-05-06 01:52 | -26.80111 | -50.13774 | 32253 ft | 417 kts | 225° |
| 2026-05-06 01:52 | -26.84362 | -50.18201 | 32257 ft | 419 kts | 225° |
| 2026-05-06 01:53 | -26.88613 | -50.22633 | 32260 ft | 416 kts | 225° |
| 2026-05-06 01:53 | -26.92843 | -50.27047 | 32269 ft | 417 kts | 225° |
| 2026-05-06 01:54 | -26.97085 | -50.31479 | 32273 ft | 417 kts | 225° |
| 2026-05-06 01:54 | -27.01328 | -50.35916 | 32279 ft | 415 kts | 225° |
| 2026-05-06 01:55 | -27.05530 | -50.40316 | 32286 ft | 415 kts | 225° |
| 2026-05-06 01:55 | -27.09757 | -50.44746 | 32291 ft | 415 kts | 225° |
| 2026-05-06 01:56 | -27.13963 | -50.49160 | 32287 ft | 415 kts | 225° |
| 2026-05-06 01:56 | -27.18172 | -50.53580 | 32283 ft | 414 kts | 225° |
| 2026-05-06 01:57 | -27.22391 | -50.58016 | 32278 ft | 416 kts | 225° |
| 2026-05-06 01:57 | -27.26599 | -50.62444 | 32273 ft | 415 kts | 225° |
| 2026-05-06 01:58 | -27.30826 | -50.66898 | 32266 ft | 416 kts | 225° |
| 2026-05-06 01:58 | -27.35035 | -50.71339 | 32266 ft | 414 kts | 225° |
| 2026-05-06 01:59 | -27.39230 | -50.75768 | 32262 ft | 414 kts | 226° |
| 2026-05-06 01:59 | -27.43426 | -50.80206 | 32263 ft | 415 kts | 226° |
| 2026-05-06 02:00 | -27.47602 | -50.84626 | 32272 ft | 413 kts | 226° |
| 2026-05-06 02:00 | -27.51817 | -50.89093 | 32264 ft | 415 kts | 226° |
| 2026-05-06 02:01 | -27.55981 | -50.93510 | 32269 ft | 414 kts | 226° |
| 2026-05-06 02:01 | -27.60177 | -50.97967 | 32266 ft | 412 kts | 226° |
| 2026-05-06 02:02 | -27.64345 | -51.02396 | 32262 ft | 413 kts | 226° |
| 2026-05-06 02:02 | -27.68514 | -51.06833 | 32258 ft | 414 kts | 226° |
| 2026-05-06 02:03 | -27.72703 | -51.11293 | 32247 ft | 413 kts | 226° |
| 2026-05-06 02:03 | -27.76835 | -51.15699 | 32237 ft | 412 kts | 226° |
| 2026-05-06 02:04 | -27.81009 | -51.20157 | 32238 ft | 413 kts | 226° |
| 2026-05-06 02:04 | -27.85156 | -51.24590 | 32241 ft | 412 kts | 226° |
| 2026-05-06 02:05 | -27.89324 | -51.29050 | 32248 ft | 411 kts | 226° |
| 2026-05-06 02:05 | -27.93474 | -51.33497 | 32258 ft | 412 kts | 226° |
| 2026-05-06 02:06 | -27.97633 | -51.37957 | 32256 ft | 411 kts | 226° |
| 2026-05-06 02:06 | -28.01769 | -51.42397 | 32251 ft | 412 kts | 226° |
| 2026-05-06 02:07 | -28.05920 | -51.46859 | 32244 ft | 411 kts | 226° |
| 2026-05-06 02:07 | -28.10048 | -51.51300 | 32243 ft | 411 kts | 226° |
| 2026-05-06 02:08 | -28.14211 | -51.55784 | 32235 ft | 408 kts | 226° |
| 2026-05-06 02:08 | -28.18318 | -51.60214 | 32232 ft | 409 kts | 226° |
| 2026-05-06 02:09 | -28.22415 | -51.64639 | 32232 ft | 408 kts | 226° |
| 2026-05-06 02:09 | -28.26553 | -51.69113 | 32233 ft | 408 kts | 226° |
| 2026-05-06 02:10 | -28.30644 | -51.73540 | 32226 ft | 408 kts | 226° |
| 2026-05-06 02:10 | -28.34737 | -51.77972 | 32220 ft | 408 kts | 227° |
| 2026-05-06 02:11 | -28.38861 | -51.82443 | 32216 ft | 409 kts | 227° |
| 2026-05-06 02:11 | -28.42959 | -51.86895 | 32210 ft | 408 kts | 227° |
| 2026-05-06 02:12 | -28.47046 | -51.91337 | 32206 ft | 407 kts | 227° |
| 2026-05-06 02:12 | -28.51141 | -51.95791 | 32206 ft | 406 kts | 226° |
| 2026-05-06 02:13 | -28.55230 | -52.00246 | 32205 ft | 408 kts | 226° |
| 2026-05-06 02:14 | -28.63384 | -52.09146 | 32184 ft | 407 kts | 226° |
| 2026-05-06 02:14 | -28.67462 | -52.13604 | 32180 ft | 407 kts | 226° |
| 2026-05-06 02:15 | -28.71541 | -52.18067 | 32185 ft | 406 kts | 226° |
| 2026-05-06 02:15 | -28.75614 | -52.22528 | 32194 ft | 408 kts | 226° |
| 2026-05-06 02:16 | -28.79713 | -52.27024 | 32186 ft | 407 kts | 226° |
| 2026-05-06 02:16 | -28.83777 | -52.31488 | 32179 ft | 406 kts | 227° |
| 2026-05-06 02:17 | -28.87820 | -52.35932 | 32167 ft | 407 kts | 226° |
| 2026-05-06 02:17 | -28.91908 | -52.40431 | 32158 ft | 407 kts | 226° |
| 2026-05-06 02:18 | -28.95969 | -52.44905 | 32153 ft | 406 kts | 226° |
| 2026-05-06 02:18 | -29.00026 | -52.49381 | 32145 ft | 408 kts | 226° |
| 2026-05-06 02:19 | -29.04097 | -52.53877 | 32143 ft | 406 kts | 226° |
| 2026-05-06 02:19 | -29.08145 | -52.58351 | 32146 ft | 405 kts | 226° |
| 2026-05-06 02:20 | -29.14215 | -52.65074 | 32144 ft | 406 kts | 227° |
| 2026-05-06 02:21 | -29.18268 | -52.69569 | 32140 ft | 407 kts | 227° |
| 2026-05-06 02:21 | -29.22332 | -52.74080 | 32137 ft | 405 kts | 227° |
| 2026-05-06 02:22 | -29.26374 | -52.78573 | 32133 ft | 407 kts | 227° |
| 2026-05-06 02:22 | -29.30429 | -52.83085 | 32124 ft | 406 kts | 227° |
| 2026-05-06 02:23 | -29.34483 | -52.87600 | 32122 ft | 406 kts | 227° |
| 2026-05-06 02:23 | -29.38521 | -52.92104 | 32120 ft | 405 kts | 227° |
| 2026-05-06 02:24 | -29.42554 | -52.96607 | 32124 ft | 406 kts | 227° |
| 2026-05-06 02:24 | -29.46600 | -53.01129 | 32129 ft | 406 kts | 227° |
| 2026-05-06 02:25 | -29.50651 | -53.05663 | 32120 ft | 405 kts | 227° |
| 2026-05-06 02:25 | -29.54671 | -53.10167 | 32106 ft | 406 kts | 227° |
| 2026-05-06 02:26 | -29.58701 | -53.14691 | 32086 ft | 404 kts | 227° |
| 2026-05-06 02:26 | -29.62730 | -53.19217 | 32069 ft | 406 kts | 227° |
| 2026-05-06 02:27 | -29.66741 | -53.23726 | 32058 ft | 405 kts | 227° |
| 2026-05-06 02:27 | -29.70778 | -53.28270 | 32051 ft | 406 kts | 227° |
| 2026-05-06 02:28 | -29.74798 | -53.32802 | 32038 ft | 405 kts | 227° |
| 2026-05-06 02:28 | -29.78816 | -53.37336 | 32039 ft | 404 kts | 227° |
| 2026-05-06 02:29 | -29.82807 | -53.41844 | 32040 ft | 404 kts | 227° |
| 2026-05-06 02:29 | -29.86816 | -53.46381 | 32041 ft | 404 kts | 227° |
| 2026-05-06 02:30 | -29.90823 | -53.50920 | 32038 ft | 406 kts | 227° |
| 2026-05-06 02:30 | -29.94849 | -53.55484 | 32040 ft | 404 kts | 227° |
| 2026-05-06 02:31 | -29.98845 | -53.60020 | 32036 ft | 404 kts | 227° |
| 2026-05-06 02:31 | -30.02839 | -53.64561 | 32037 ft | 404 kts | 227° |
| 2026-05-06 02:32 | -30.06843 | -53.69117 | 32036 ft | 403 kts | 227° |
| 2026-05-06 02:32 | -30.10854 | -53.73685 | 32041 ft | 404 kts | 228° |
| 2026-05-06 02:33 | -30.14849 | -53.78241 | 32040 ft | 403 kts | 228° |
| 2026-05-06 02:33 | -30.16163 | -53.79742 | 32042 ft | 405 kts | 227° |
| 2026-05-06 02:34 | -30.22841 | -53.87375 | 32045 ft | 404 kts | 228° |
| 2026-05-06 02:34 | -30.26815 | -53.91926 | 32047 ft | 404 kts | 228° |
| 2026-05-06 02:35 | -30.30790 | -53.96481 | 32048 ft | 401 kts | 228° |
| 2026-05-06 02:35 | -30.34756 | -54.01035 | 32049 ft | 405 kts | 227° |
| 2026-05-06 02:36 | -30.38747 | -54.05619 | 32056 ft | 404 kts | 228° |
| 2026-05-06 02:36 | -30.42726 | -54.10195 | 32059 ft | 403 kts | 228° |
| 2026-05-06 02:37 | -30.46713 | -54.14786 | 32052 ft | 403 kts | 228° |
| 2026-05-06 02:37 | -30.50685 | -54.19366 | 32051 ft | 403 kts | 228° |
| 2026-05-06 02:38 | -30.54627 | -54.23915 | 32050 ft | 402 kts | 228° |
| 2026-05-06 02:38 | -30.58591 | -54.28499 | 32045 ft | 402 kts | 228° |
| 2026-05-06 02:39 | -30.62529 | -54.33057 | 32043 ft | 403 kts | 228° |
| 2026-05-06 02:39 | -30.66487 | -54.37645 | 32042 ft | 402 kts | 228° |
| 2026-05-06 02:40 | -30.70425 | -54.42212 | 32043 ft | 402 kts | 228° |
| 2026-05-06 02:40 | -30.74395 | -54.46824 | 32039 ft | 402 kts | 228° |
| 2026-05-06 02:41 | -30.78336 | -54.51407 | 32036 ft | 400 kts | 228° |
| 2026-05-06 02:41 | -30.82262 | -54.55979 | 32046 ft | 400 kts | 229° |
| 2026-05-06 02:42 | -30.86170 | -54.60535 | 32043 ft | 399 kts | 229° |
| 2026-05-06 02:42 | -30.90090 | -54.65110 | 32034 ft | 400 kts | 229° |
| 2026-05-06 02:43 | -30.94000 | -54.69681 | 32034 ft | 400 kts | 229° |
| 2026-05-06 02:43 | -30.97919 | -54.74266 | 32031 ft | 398 kts | 229° |
| 2026-05-06 02:44 | -31.01829 | -54.78850 | 32028 ft | 398 kts | 229° |
| 2026-05-06 02:44 | -31.05733 | -54.83430 | 32025 ft | 399 kts | 229° |
| 2026-05-06 02:45 | -31.09629 | -54.88005 | 32023 ft | 399 kts | 229° |
| 2026-05-06 02:45 | -31.13531 | -54.92595 | 32021 ft | 400 kts | 229° |
| 2026-05-06 02:46 | -31.17448 | -54.97205 | 32022 ft | 399 kts | 229° |
| 2026-05-06 02:46 | -31.21336 | -55.01786 | 32023 ft | 398 kts | 229° |
| 2026-05-06 02:47 | -31.25244 | -55.06401 | 32022 ft | 400 kts | 229° |
| 2026-05-06 02:47 | -31.28937 | -55.11222 | 32022 ft | 396 kts | 236° |
| 2026-05-06 02:48 | -31.31605 | -55.16777 | 32022 ft | 393 kts | 247° |
| 2026-05-06 02:48 | -31.33582 | -55.22740 | 32019 ft | 393 kts | 250° |
| 2026-05-06 02:49 | -31.35403 | -55.28718 | 32021 ft | 393 kts | 251° |
| 2026-05-06 02:49 | -31.37233 | -55.34738 | 32017 ft | 393 kts | 250° |
| 2026-05-06 02:50 | -31.39068 | -55.40741 | 32017 ft | 392 kts | 250° |
| 2026-05-06 02:50 | -31.40906 | -55.46740 | 32018 ft | 394 kts | 250° |
| 2026-05-06 02:51 | -31.42746 | -55.52742 | 32015 ft | 392 kts | 250° |
| 2026-05-06 02:51 | -31.44582 | -55.58741 | 32014 ft | 392 kts | 250° |
| 2026-05-06 02:52 | -31.46400 | -55.64688 | 32009 ft | 391 kts | 250° |
| 2026-05-06 02:52 | -31.48241 | -55.70716 | 32011 ft | 391 kts | 251° |
| 2026-05-06 02:53 | -31.50065 | -55.76701 | 32012 ft | 391 kts | 250° |
| 2026-05-06 02:53 | -31.51878 | -55.82664 | 32007 ft | 390 kts | 251° |
| 2026-05-06 02:54 | -31.53693 | -55.88649 | 32007 ft | 389 kts | 251° |
| 2026-05-06 02:54 | -31.55491 | -55.94594 | 32004 ft | 389 kts | 250° |
| 2026-05-06 02:55 | -31.57301 | -56.00581 | 32007 ft | 389 kts | 250° |
| 2026-05-06 02:55 | -31.59088 | -56.06499 | 32008 ft | 387 kts | 251° |
| 2026-05-06 02:56 | -31.60884 | -56.12470 | 32010 ft | 388 kts | 251° |
| 2026-05-06 02:56 | -31.62667 | -56.18409 | 32012 ft | 388 kts | 250° |
| 2026-05-06 02:57 | -31.64452 | -56.24364 | 32017 ft | 387 kts | 251° |
| 2026-05-06 02:57 | -31.66224 | -56.30288 | 32013 ft | 386 kts | 251° |
| 2026-05-06 02:58 | -31.67995 | -56.36222 | 32005 ft | 388 kts | 251° |
| 2026-05-06 02:58 | -31.69775 | -56.42194 | 32001 ft | 387 kts | 251° |
| 2026-05-06 02:59 | -31.71542 | -56.48137 | 31998 ft | 387 kts | 251° |
| 2026-05-06 02:59 | -31.73308 | -56.54083 | 31997 ft | 387 kts | 251° |
| 2026-05-06 03:00 | -31.75073 | -56.60043 | 31994 ft | 388 kts | 251° |
| 2026-05-06 03:00 | -31.76834 | -56.65995 | 31993 ft | 386 kts | 251° |
| 2026-05-06 03:01 | -31.78599 | -56.71965 | 31991 ft | 387 kts | 252° |
| 2026-05-06 03:01 | -31.80348 | -56.77900 | 31989 ft | 387 kts | 252° |
| 2026-05-06 03:02 | -31.82106 | -56.83871 | 31985 ft | 386 kts | 251° |
| 2026-05-06 03:02 | -31.83842 | -56.89787 | 31992 ft | 384 kts | 252° |
| 2026-05-06 03:03 | -31.85588 | -56.95741 | 31997 ft | 386 kts | 251° |
| 2026-05-06 03:03 | -31.87324 | -57.01673 | 31998 ft | 383 kts | 252° |
| 2026-05-06 03:04 | -31.89051 | -57.07589 | 31996 ft | 383 kts | 252° |
| 2026-05-06 03:04 | -31.90779 | -57.13509 | 31991 ft | 385 kts | 252° |
| 2026-05-06 03:05 | -31.92503 | -57.19425 | 31990 ft | 383 kts | 252° |
| 2026-05-06 03:05 | -31.94231 | -57.25373 | 31989 ft | 384 kts | 252° |
| 2026-05-06 03:06 | -31.95945 | -57.31296 | 31987 ft | 384 kts | 252° |
| 2026-05-06 03:06 | -31.97661 | -57.37235 | 31978 ft | 383 kts | 253° |
| 2026-05-06 03:07 | -31.99379 | -57.43189 | 31967 ft | 386 kts | 252° |
| 2026-05-06 03:07 | -32.01097 | -57.49150 | 31962 ft | 384 kts | 252° |
| 2026-05-06 03:08 | -32.02807 | -57.55109 | 31959 ft | 386 kts | 253° |
| 2026-05-06 03:08 | -32.04507 | -57.61038 | 31958 ft | 384 kts | 252° |
| 2026-05-06 03:09 | -32.06223 | -57.67027 | 31957 ft | 386 kts | 253° |
| 2026-05-06 03:09 | -32.07925 | -57.72979 | 31964 ft | 385 kts | 253° |
| 2026-05-06 03:10 | -32.09631 | -57.78962 | 31969 ft | 386 kts | 253° |
| 2026-05-06 03:10 | -32.11335 | -57.84951 | 31967 ft | 387 kts | 253° |
| 2026-05-06 03:11 | -32.13032 | -57.90933 | 31969 ft | 385 kts | 253° |
| 2026-05-06 03:11 | -32.14733 | -57.96930 | 31967 ft | 384 kts | 253° |
| 2026-05-06 03:12 | -32.16419 | -58.02887 | 31969 ft | 386 kts | 253° |
| 2026-05-06 03:12 | -32.18110 | -58.08885 | 31966 ft | 386 kts | 253° |
| 2026-05-06 03:13 | -32.19797 | -58.14878 | 31967 ft | 384 kts | 253° |
| 2026-05-06 03:13 | -32.21469 | -58.20862 | 31966 ft | 385 kts | 254° |
| 2026-05-06 03:14 | -32.23050 | -58.26898 | 31965 ft | 385 kts | 255° |
| 2026-05-06 03:14 | -32.24586 | -58.32905 | 31962 ft | 384 kts | 255° |
| 2026-05-06 03:15 | -32.26133 | -58.38951 | 31963 ft | 386 kts | 255° |
| 2026-05-06 03:15 | -32.27689 | -58.45017 | 31957 ft | 386 kts | 255° |
| 2026-05-06 03:16 | -32.29250 | -58.51095 | 31958 ft | 386 kts | 255° |
| 2026-05-06 03:16 | -32.30800 | -58.57137 | 31957 ft | 385 kts | 255° |
| 2026-05-06 03:17 | -32.32344 | -58.63166 | 31955 ft | 387 kts | 255° |
| 2026-05-06 03:17 | -32.33917 | -58.69237 | 31956 ft | 385 kts | 254° |
| 2026-05-06 03:18 | -32.35628 | -58.75204 | 31950 ft | 386 kts | 253° |
| 2026-05-06 03:18 | -32.37384 | -58.81171 | 31950 ft | 385 kts | 254° |
| 2026-05-06 03:19 | -32.39131 | -58.87152 | 31953 ft | 386 kts | 254° |
| 2026-05-06 03:19 | -32.40853 | -58.93103 | 31953 ft | 385 kts | 254° |
| 2026-05-06 03:20 | -32.43445 | -59.02133 | 31948 ft | 385 kts | 254° |
| 2026-05-06 03:20 | -32.45159 | -59.08118 | 31949 ft | 387 kts | 254° |
| 2026-05-06 03:21 | -32.46880 | -59.14142 | 31943 ft | 386 kts | 254° |
| 2026-05-06 03:21 | -32.48589 | -59.20139 | 31945 ft | 386 kts | 254° |
| 2026-05-06 03:22 | -32.50291 | -59.26110 | 31549 ft | 376 kts | 254° |
| 2026-05-06 03:22 | -32.51115 | -59.29006 | 31184 ft | 377 kts | 254° |
| 2026-05-06 03:22 | -32.51961 | -59.31997 | 30753 ft | 390 kts | 253° |
| 2026-05-06 03:23 | -32.52859 | -59.35038 | 30009 ft | 392 kts | 251° |
| 2026-05-06 03:23 | -32.53936 | -59.38009 | 29193 ft | 393 kts | 246° |
| 2026-05-06 03:23 | -32.55199 | -59.40838 | 28362 ft | 396 kts | 243° |
| 2026-05-06 03:23 | -32.56585 | -59.43668 | 27468 ft | 397 kts | 242° |
| 2026-05-06 03:24 | -32.58006 | -59.46468 | 26546 ft | 400 kts | 242° |
| 2026-05-06 03:24 | -32.59438 | -59.49274 | 25576 ft | 402 kts | 241° |
| 2026-05-06 03:24 | -32.60871 | -59.52088 | 24586 ft | 404 kts | 242° |
| 2026-05-06 03:24 | -32.62326 | -59.54963 | 23622 ft | 405 kts | 242° |
| 2026-05-06 03:25 | -32.63763 | -59.57821 | 23076 ft | 419 kts | 242° |
| 2026-05-06 03:25 | -32.65277 | -59.60850 | 22455 ft | 425 kts | 242° |
| 2026-05-06 03:25 | -32.66759 | -59.63815 | 21801 ft | 417 kts | 242° |
| 2026-05-06 03:25 | -32.68215 | -59.66735 | 21146 ft | 410 kts | 242° |
| 2026-05-06 03:26 | -32.69664 | -59.69647 | 20495 ft | 411 kts | 242° |
| 2026-05-06 03:26 | -32.71119 | -59.72581 | 19825 ft | 414 kts | 242° |
| 2026-05-06 03:26 | -32.72555 | -59.75478 | 19159 ft | 408 kts | 242° |
| 2026-05-06 03:26 | -32.73979 | -59.78355 | 18501 ft | 401 kts | 242° |
| 2026-05-06 03:27 | -32.75363 | -59.81153 | 17853 ft | 395 kts | 242° |
| 2026-05-06 03:27 | -32.76765 | -59.83997 | 17181 ft | 402 kts | 242° |
| 2026-05-06 03:27 | -32.78166 | -59.86842 | 16518 ft | 400 kts | 242° |
| 2026-05-06 03:27 | -32.79563 | -59.89677 | 15861 ft | 393 kts | 242° |
| 2026-05-06 03:28 | -32.80921 | -59.92431 | 15212 ft | 391 kts | 242° |
| 2026-05-06 03:28 | -32.82304 | -59.95244 | 14543 ft | 396 kts | 242° |
| 2026-05-06 03:28 | -32.83689 | -59.98061 | 13867 ft | 393 kts | 242° |
| 2026-05-06 03:28 | -32.85055 | -60.00838 | 13206 ft | 387 kts | 242° |
| 2026-05-06 03:29 | -32.86396 | -60.03563 | 12546 ft | 382 kts | 242° |
| 2026-05-06 03:29 | -32.87743 | -60.06311 | 11878 ft | 388 kts | 242° |
| 2026-05-06 03:29 | -32.89091 | -60.09061 | 11344 ft | 384 kts | 243° |
| 2026-05-06 03:29 | -32.90397 | -60.11720 | 11027 ft | 368 kts | 243° |
| 2026-05-06 03:30 | -32.91657 | -60.14284 | 10866 ft | 350 kts | 242° |
| 2026-05-06 03:30 | -32.92865 | -60.16745 | 10718 ft | 334 kts | 243° |
| 2026-05-06 03:30 | -32.93925 | -60.19102 | 10568 ft | 318 kts | 249° |
| 2026-05-06 03:30 | -32.94736 | -60.21474 | 10412 ft | 303 kts | 252° |
| 2026-05-06 03:31 | -32.95430 | -60.23805 | 10262 ft | 291 kts | 254° |
| 2026-05-06 03:31 | -32.96072 | -60.26037 | 10117 ft | 280 kts | 254° |
| 2026-05-06 03:31 | -32.96697 | -60.28182 | 9886 ft | 273 kts | 255° |
| 2026-05-06 03:31 | -32.97331 | -60.30323 | 9491 ft | 274 kts | 254° |
| 2026-05-06 03:32 | -32.97963 | -60.32429 | 9117 ft | 273 kts | 254° |
| 2026-05-06 03:32 | -32.98609 | -60.34570 | 8744 ft | 273 kts | 254° |
| 2026-05-06 03:32 | -32.99247 | -60.36682 | 8376 ft | 272 kts | 255° |
| 2026-05-06 03:32 | -32.99886 | -60.38792 | 8009 ft | 272 kts | 255° |
| 2026-05-06 03:33 | -33.00523 | -60.40902 | 7643 ft | 271 kts | 255° |
| 2026-05-06 03:33 | -33.01160 | -60.43010 | 7273 ft | 270 kts | 255° |
| 2026-05-06 03:33 | -33.01791 | -60.45098 | 6913 ft | 269 kts | 255° |
| 2026-05-06 03:33 | -33.02419 | -60.47187 | 6553 ft | 268 kts | 255° |
| 2026-05-06 03:34 | -33.03041 | -60.49253 | 6191 ft | 267 kts | 255° |
| 2026-05-06 03:34 | -33.03668 | -60.51338 | 5829 ft | 267 kts | 255° |
| 2026-05-06 03:34 | -33.04295 | -60.53427 | 5468 ft | 266 kts | 255° |
| 2026-05-06 03:34 | -33.04915 | -60.55500 | 5112 ft | 265 kts | 255° |
| 2026-05-06 03:35 | -33.05523 | -60.57541 | 4757 ft | 265 kts | 255° |
| 2026-05-06 03:35 | -33.06142 | -60.59622 | 4400 ft | 264 kts | 255° |
| 2026-05-06 03:35 | -33.06748 | -60.61659 | 4082 ft | 263 kts | 255° |
| 2026-05-06 03:35 | -33.07351 | -60.63678 | 3929 ft | 254 kts | 255° |
| 2026-05-06 03:36 | -33.07937 | -60.65636 | 3814 ft | 244 kts | 255° |
| 2026-05-06 03:36 | -33.08498 | -60.67511 | 3765 ft | 236 kts | 256° |
| 2026-05-06 03:36 | -33.09049 | -60.69373 | 3688 ft | 241 kts | 255° |
| 2026-05-06 03:36 | -33.09546 | -60.71262 | 3607 ft | 237 kts | 261° |
| 2026-05-06 03:37 | -33.09609 | -60.73151 | 3546 ft | 220 kts | 288° |
| 2026-05-06 03:37 | -33.09062 | -60.74776 | 3477 ft | 204 kts | 301° |
| 2026-05-06 03:37 | -33.08458 | -60.76245 | 3353 ft | 197 kts | 299° |
| 2026-05-06 03:37 | -33.07916 | -60.77732 | 3170 ft | 192 kts | 297° |
| 2026-05-06 03:38 | -33.07419 | -60.79183 | 2987 ft | 187 kts | 299° |
| 2026-05-06 03:38 | -33.06590 | -60.80314 | 2825 ft | 179 kts | 334° |
| 2026-05-06 03:38 | -33.05415 | -60.80770 | 2714 ft | 179 kts | 349° |
| 2026-05-06 03:38 | -33.04192 | -60.81012 | 2538 ft | 178 kts | 355° |
| 2026-05-06 03:39 | -33.02958 | -60.81067 | 2315 ft | 175 kts | 3° |
| 2026-05-06 03:39 | -33.01754 | -60.80945 | 2078 ft | 171 kts | 8° |
| 2026-05-06 03:39 | -33.00578 | -60.80742 | 1854 ft | 168 kts | 11° |
| 2026-05-06 03:39 | -32.99467 | -60.80523 | 1646 ft | 156 kts | 12° |
| 2026-05-06 03:40 | -32.98437 | -60.80307 | 1437 ft | 146 kts | 12° |
| 2026-05-06 03:40 | -32.97474 | -60.80098 | 1261 ft | 134 kts | 13° |
| 2026-05-06 03:40 | -32.96567 | -60.79898 | 1076 ft | 131 kts | 13° |
| 2026-05-06 03:40 | -32.95666 | -60.79693 | 902 ft | 133 kts | 13° |
| 2026-05-06 03:41 | -32.94756 | -60.79489 | 727 ft | 133 kts | 14° |
| 2026-05-06 03:41 | -32.93842 | -60.79279 | 576 ft | 133 kts | 15° |
| 2026-05-06 03:41 | -32.92917 | -60.79055 | 416 ft | 136 kts | 14° |
| 2026-05-06 03:41 | -32.91985 | -60.78841 | 204 ft | 138 kts | 14° |
| 2026-05-06 03:42 | -32.91056 | -60.78629 | 97 ft | 128 kts | 14° |
| 2026-05-06 03:42 | -32.90359 | -60.78469 | 94 ft | 68 kts | 11° |
| 2026-05-06 03:42 | -32.90127 | -60.78412 | 92 ft | 17 kts | 25° |
| 2026-05-06 03:42 | -32.90097 | -60.78405 | 92 ft | 2 kts | 236° |
| 2026-05-06 03:43 | -32.90136 | -60.78416 | 92 ft | 8 kts | 191° |
| 2026-05-06 03:43 | -32.90212 | -60.78433 | 93 ft | 13 kts | 191° |
| 2026-05-06 03:43 | -32.90321 | -60.78458 | 94 ft | 18 kts | 192° |
| 2026-05-06 03:43 | -32.90458 | -60.78488 | 94 ft | 20 kts | 189° |
| 2026-05-06 03:44 | -32.90605 | -60.78523 | 95 ft | 22 kts | 191° |
| 2026-05-06 03:44 | -32.90750 | -60.78556 | 95 ft | 18 kts | 189° |
| 2026-05-06 03:44 | -32.90872 | -60.78571 | 94 ft | 16 kts | 176° |
| 2026-05-06 03:44 | -32.90992 | -60.78527 | 94 ft | 19 kts | 157° |
| 2026-05-06 03:45 | -32.91103 | -60.78458 | 93 ft | 19 kts | 145° |
| 2026-05-06 03:45 | -32.91218 | -60.78350 | 92 ft | 22 kts | 142° |
| 2026-05-06 03:45 | -32.91342 | -60.78236 | 91 ft | 18 kts | 143° |
| 2026-05-06 03:45 | -32.91426 | -60.78144 | 90 ft | 15 kts | 111° |
| 2026-05-06 03:46 | -32.91454 | -60.78054 | 90 ft | 3 kts | 111° |
| 2026-05-06 03:46 | -32.91457 | -60.78045 | 90 ft | 0 kts | 111° |